createdAt,value
2023-01-29T00:01:04.610Z,8.2
2023-01-29T00:06:06.807Z,8.2
2023-01-29T00:11:09.005Z,7.9
2023-01-29T00:16:11.081Z,7.8
2023-01-29T00:21:13.150Z,7.4
2023-01-29T00:26:15.277Z,7.5
2023-01-29T00:31:17.933Z,7.3
2023-01-29T00:36:20.558Z,7.2
2023-01-29T00:41:24.246Z,6.9
2023-01-29T00:46:26.583Z,7.1
2023-01-29T00:51:28.740Z,7.2
2023-01-29T00:56:30.794Z,7.3
2023-01-29T01:01:33.515Z,7.3
2023-01-29T01:06:36.011Z,7.5
2023-01-29T01:11:38.238Z,7.6
2023-01-29T01:16:40.360Z,7.8
2023-01-29T01:21:42.458Z,8.5
2023-01-29T01:26:44.518Z,7.9
2023-01-29T01:31:46.652Z,7.6
2023-01-29T01:36:48.769Z,7.9
2023-01-29T01:41:50.777Z,7.2
2023-01-29T01:46:53.053Z,7.8
2023-01-29T01:51:55.071Z,7.6
2023-01-29T01:56:57.045Z,7.8
2023-01-29T02:01:59.153Z,7.8
2023-01-29T02:07:01.342Z,8
2023-01-29T02:12:03.450Z,7.6
2023-01-29T02:17:05.711Z,7.6
2023-01-29T02:22:08.141Z,7.6
2023-01-29T02:27:10.192Z,8.1
2023-01-29T02:32:12.216Z,7.9
2023-01-29T02:37:14.307Z,7.6
2023-01-29T02:42:16.667Z,7.7
2023-01-29T02:47:19.031Z,7.7
2023-01-29T02:52:21.556Z,7.6
2023-01-29T02:57:23.639Z,7.8
2023-01-29T03:02:25.686Z,8
2023-01-29T03:07:27.841Z,8
2023-01-29T03:12:30.029Z,8.4
2023-01-29T03:17:32.129Z,8.4
2023-01-29T03:22:34.253Z,8.1
2023-01-29T03:27:36.443Z,8.1
2023-01-29T03:32:38.436Z,7.7
2023-01-29T03:37:40.665Z,8
2023-01-29T03:42:43.947Z,7.9
2023-01-29T03:47:46.343Z,7.4
2023-01-29T03:52:48.399Z,7.5
2023-01-29T03:57:50.615Z,7.3
2023-01-29T04:02:52.631Z,7.5
2023-01-29T04:07:54.613Z,7.1
2023-01-29T04:12:56.698Z,12.4
2023-01-29T04:17:57.152Z,7.5
2023-01-29T04:22:59.137Z,8
2023-01-29T04:28:01.141Z,8.1
2023-01-29T04:33:03.210Z,8
2023-01-29T04:38:05.242Z,7.5
2023-01-29T04:43:07.168Z,7.5
2023-01-29T04:48:09.962Z,7.2
2023-01-29T04:53:12.092Z,7.1
2023-01-29T04:58:14.159Z,9.5
2023-01-29T05:03:16.273Z,7
2023-01-29T05:08:18.557Z,7.3
2023-01-29T05:13:20.668Z,7.2
2023-01-29T05:18:25.100Z,7.2
2023-01-29T05:23:27.426Z,6.6
2023-01-29T05:28:29.750Z,7.2
2023-01-29T05:33:31.749Z,6.9
2023-01-29T05:38:33.746Z,6.7
2023-01-29T05:43:36.115Z,6.7
2023-01-29T05:48:39.043Z,7.1
2023-01-29T05:53:41.036Z,6.9
2023-01-29T05:58:43.091Z,7
2023-01-29T06:03:45.176Z,7
2023-01-29T06:08:47.186Z,20.3
2023-01-29T06:13:49.282Z,9.4
2023-01-29T06:18:51.304Z,7.2
2023-01-29T06:23:53.640Z,8.1
2023-01-29T06:28:56.226Z,8.9
2023-01-29T06:33:58.216Z,13.5
2023-01-29T06:39:00.201Z,12.4
2023-01-29T06:44:02.403Z,13
2023-01-29T06:49:04.592Z,14.7
2023-01-29T06:54:06.627Z,16.6
2023-01-29T06:59:08.578Z,15.3
2023-01-29T07:04:10.632Z,16.2
2023-01-29T07:09:12.858Z,20.3
2023-01-29T07:14:14.826Z,20.6
2023-01-29T07:19:16.839Z,19.5
2023-01-29T07:24:19.535Z,20.2
2023-01-29T07:29:22.544Z,21
2023-01-29T07:34:24.864Z,20.1
2023-01-29T07:39:26.919Z,19.8
2023-01-29T07:44:29.253Z,19.8
2023-01-29T07:49:31.906Z,19.1
2023-01-29T07:54:34.775Z,30.8
2023-01-29T07:59:35.444Z,21
2023-01-29T08:04:37.707Z,21.2
2023-01-29T08:09:40.359Z,21.5
2023-01-29T08:14:42.512Z,20.7
2023-01-29T08:19:44.615Z,20.1
2023-01-29T08:25:06.242Z,19.5
2023-01-29T08:29:50.251Z,20.9
2023-01-29T08:34:52.341Z,19.7
2023-01-29T08:39:54.980Z,19.8
2023-01-29T08:44:57.256Z,19.3
2023-01-29T08:50:00.352Z,18.4
2023-01-29T08:55:02.632Z,18.8
2023-01-29T09:00:04.858Z,18.2
2023-01-29T09:05:07.081Z,17.2
2023-01-29T09:10:09.301Z,17.6
2023-01-29T09:15:11.345Z,16.9
2023-01-29T09:20:13.762Z,17
2023-01-29T09:25:16.937Z,16.9
2023-01-29T09:30:20.980Z,16.9
2023-01-29T09:35:23.922Z,15.8
2023-01-29T09:40:26.529Z,16.4
2023-01-29T09:45:30.855Z,14.7
2023-01-29T09:50:35.265Z,14.8
2023-01-29T09:55:38.047Z,15.4
2023-01-29T10:00:41.196Z,16.4
2023-01-29T10:05:44.069Z,15
2023-01-29T10:10:47.569Z,15.4
2023-01-29T10:15:50.529Z,15.7
2023-01-29T10:20:56.788Z,16.2
2023-01-29T10:26:00.425Z,15.5
2023-01-29T10:31:03.423Z,14.8
2023-01-29T10:36:06.599Z,12.8
2023-01-29T10:41:11.019Z,12.9
2023-01-29T10:46:14.328Z,12.7
2023-01-29T10:51:17.212Z,13.3
2023-01-29T10:56:24.160Z,13.9
2023-01-29T11:01:27.045Z,14.7
2023-01-29T11:06:29.738Z,13.7
2023-01-29T11:11:32.053Z,13.2
2023-01-29T11:16:34.435Z,13.2
2023-01-29T11:21:36.874Z,12.9
2023-01-29T11:26:39.188Z,13.2
2023-01-29T11:31:41.568Z,13
2023-01-29T11:36:43.864Z,13.3
2023-01-29T11:41:45.857Z,13
2023-01-29T11:46:48.375Z,13
2023-01-29T11:51:50.979Z,12.7
2023-01-29T11:56:53.158Z,11.8
2023-01-29T12:01:55.182Z,12
2023-01-29T12:06:57.452Z,12.9
2023-01-29T12:11:59.637Z,13.7
2023-01-29T12:17:04.409Z,13.3
2023-01-29T12:22:06.865Z,12.9
2023-01-29T12:27:08.971Z,12
2023-01-29T12:32:11.425Z,10.3
2023-01-29T12:37:13.804Z,9.9
2023-01-29T12:42:16.131Z,9.6
2023-01-29T12:47:18.384Z,9.2
2023-01-29T12:52:21.585Z,8.8
2023-01-29T12:57:24.157Z,9
2023-01-29T13:02:26.915Z,8.3
2023-01-29T13:07:29.452Z,8.3
2023-01-29T13:12:31.871Z,8.4
2023-01-29T13:17:34.448Z,8.7
2023-01-29T13:22:37.145Z,8.2
2023-01-29T13:27:40.000Z,8.4
2023-01-29T13:32:42.223Z,8
2023-01-29T13:37:44.364Z,9.3
2023-01-29T13:42:46.440Z,8.6
2023-01-29T13:47:48.446Z,8.8
2023-01-29T13:52:50.596Z,8.5
2023-01-29T13:57:56.225Z,8.5
2023-01-29T14:02:58.797Z,8.8
2023-01-29T14:08:00.858Z,8.5
2023-01-29T14:13:03.060Z,8.2
2023-01-29T14:18:05.246Z,8.1
2023-01-29T14:23:07.224Z,7.9
2023-01-29T14:28:12.470Z,7.7
2023-01-29T14:33:14.858Z,8.2
2023-01-29T14:38:16.899Z,8.1
2023-01-29T14:43:18.882Z,8.2
2023-01-29T14:48:21.774Z,8
2023-01-29T14:53:22.666Z,8.3
2023-01-29T14:58:24.813Z,8.4
2023-01-29T15:03:27.125Z,7.9
2023-01-29T15:08:29.872Z,9.6
2023-01-29T15:13:32.164Z,8.7
2023-01-29T15:18:34.540Z,8.4
2023-01-29T15:23:36.786Z,7.6
2023-01-29T15:28:39.234Z,6.5
2023-01-29T15:33:44.526Z,5.8
2023-01-29T15:38:47.404Z,5.7
2023-01-29T15:43:49.459Z,6.1
2023-01-29T15:48:52.108Z,6
2023-01-29T15:53:54.966Z,5.7
2023-01-29T15:58:57.269Z,5.6
2023-01-29T16:04:00.597Z,5.7
2023-01-29T16:09:03.294Z,5.9
2023-01-29T16:14:05.536Z,6.2
2023-01-29T16:19:08.393Z,6.9
2023-01-29T16:24:10.866Z,7.9
2023-01-29T16:29:13.469Z,7.4
2023-01-29T16:34:16.176Z,7.6
2023-01-29T16:39:19.701Z,7
2023-01-29T16:44:21.991Z,7.9
2023-01-29T16:49:24.240Z,7.3
2023-01-29T16:54:26.400Z,8.4
2023-01-29T16:59:28.583Z,7.3
2023-01-29T17:04:31.187Z,7.3
2023-01-29T17:09:35.546Z,7.7
2023-01-29T17:14:38.060Z,7.6
2023-01-29T17:19:41.099Z,7.6
2023-01-29T17:24:47.025Z,7.2
2023-01-29T17:27:20.333Z,7.8
2023-01-29T17:31:06.072Z,6.8
2023-01-29T17:34:24.111Z,6.5
2023-01-29T17:36:50.568Z,7.7
2023-01-29T17:41:52.872Z,20
2023-01-29T17:46:54.249Z,12.4
2023-01-29T17:51:54.891Z,11.9
2023-01-29T17:56:55.562Z,11.3
2023-01-29T18:01:56.257Z,12
2023-01-29T18:06:56.876Z,11.2
2023-01-29T18:11:57.395Z,11.4
2023-01-29T18:16:59.007Z,11.4
2023-01-29T18:21:59.558Z,11.4
2023-01-29T18:27:00.000Z,11.2
2023-01-29T18:32:00.568Z,12.4
2023-01-29T18:37:01.013Z,11.7
2023-01-29T18:42:01.473Z,11.5
2023-01-29T18:47:01.884Z,11.7
2023-01-29T18:52:02.298Z,13.4
2023-01-29T18:57:14.539Z,13.2
2023-01-29T19:02:04.069Z,14.7
2023-01-29T19:07:06.677Z,13.6
2023-01-29T19:12:07.239Z,13
2023-01-29T19:17:08.203Z,12.9
2023-01-29T19:22:08.695Z,21
2023-01-29T19:27:09.210Z,13.2
2023-01-29T19:32:09.875Z,19.3
2023-01-29T19:37:10.758Z,12.8
2023-01-29T19:42:14.738Z,12.8
2023-01-29T19:47:15.622Z,13.3
2023-01-29T19:52:16.218Z,13.3
2023-01-29T19:57:16.923Z,14.7
2023-01-29T20:02:17.495Z,14.7
2023-01-29T20:07:18.339Z,16.4
2023-01-29T20:12:19.058Z,15.4
2023-01-29T20:17:19.496Z,16.3
2023-01-29T20:22:20.070Z,15.5
2023-01-29T20:27:20.569Z,15.4
2023-01-29T20:32:21.012Z,16
2023-01-29T20:37:21.523Z,16.9
2023-01-29T20:42:21.958Z,16.3
2023-01-29T20:47:22.754Z,16.1
2023-01-29T20:52:23.602Z,15.9
2023-01-29T20:57:24.460Z,16.1
2023-01-29T21:02:25.130Z,14.4
2023-01-29T21:07:25.607Z,14.6
2023-01-29T21:12:26.335Z,15.2
2023-01-29T21:17:28.970Z,27.3
2023-01-29T21:22:29.458Z,15.5
2023-01-29T21:27:30.073Z,15.1
2023-01-29T21:32:30.689Z,16
2023-01-29T21:37:31.244Z,22
2023-01-29T21:42:32.126Z,14.8
2023-01-29T21:47:32.596Z,14.4
2023-01-29T21:52:33.090Z,15.3
2023-01-29T21:57:33.919Z,15.7
2023-01-29T22:02:34.534Z,15.5
2023-01-29T22:07:35.028Z,16
2023-01-29T22:12:35.630Z,15.5
2023-01-29T22:17:36.111Z,15.1
2023-01-29T22:22:36.640Z,15.2
2023-01-29T22:27:37.469Z,14.8
2023-01-29T22:32:38.141Z,15.2
2023-01-29T22:37:38.654Z,14.5
2023-01-29T22:42:39.194Z,15.7
2023-01-29T22:47:39.664Z,14.1
2023-01-29T22:52:40.064Z,15.5
2023-01-29T22:57:40.769Z,14.4
2023-01-29T23:02:41.248Z,14.4
2023-01-29T23:07:41.765Z,14.7
2023-01-29T23:12:42.281Z,15.1
2023-01-29T23:17:42.796Z,15.2
2023-01-29T23:22:43.770Z,15.3
2023-01-29T23:27:44.367Z,15
2023-01-29T23:32:44.966Z,15.1
2023-01-29T23:37:45.511Z,16.4
2023-01-29T23:42:46.215Z,15.1
2023-01-29T23:47:46.672Z,15
2023-01-29T23:52:47.119Z,15.7
2023-01-29T23:57:48.163Z,15
